sensor_id;sensor_type;location;lat;lon;timestamp;temperature;humidity
15951;DHT22;8074;48.112;11.570;2022-07-01T07:02:25;19.30;99.90
15951;DHT22;8074;48.112;11.570;2022-07-01T07:04:52;19.10;99.90
15951;DHT22;8074;48.112;11.570;2022-07-01T07:07:23;19.20;99.90
15951;DHT22;8074;48.112;11.570;2022-07-01T07:09:50;19.40;99.90
15951;DHT22;8074;48.112;11.570;2022-07-01T07:12:17;19.80;99.90
15951;DHT22;8074;48.112;11.570;2022-07-01T07:14:44;19.80;99.90
15951;DHT22;8074;48.112;11.570;2022-07-01T07:17:11;20.10;99.90
15951;DHT22;8074;48.112;11.570;2022-07-01T07:19:39;20.30;99.90
15951;DHT22;8074;48.112;11.570;2022-07-01T07:22:06;20.70;99.90
15951;DHT22;8074;48.112;11.570;2022-07-01T07:24:34;20.80;99.90
15951;DHT22;8074;48.112;11.570;2022-07-01T07:27:01;20.60;99.90
15951;DHT22;8074;48.112;11.570;2022-07-01T07:29:28;20.40;99.90
15951;DHT22;8074;48.112;11.570;2022-07-01T07:31:55;20.20;99.90
15951;DHT22;8074;48.112;11.570;2022-07-01T07:34:22;20.40;99.90
15951;DHT22;8074;48.112;11.570;2022-07-01T07:37:05;20.10;99.90
15951;DHT22;8074;48.112;11.570;2022-07-01T07:39:33;20.20;99.90
15951;DHT22;8074;48.112;11.570;2022-07-01T07:42:01;20.00;99.90
15951;DHT22;8074;48.112;11.570;2022-07-01T07:44:29;19.40;99.90
15951;DHT22;8074;48.112;11.570;2022-07-01T07:46:56;19.30;99.90
15951;DHT22;8074;48.112;11.570;2022-07-01T07:49:23;18.70;99.90
15951;DHT22;8074;48.112;11.570;2022-07-01T07:51:51;18.80;99.90
15951;DHT22;8074;48.112;11.570;2022-07-01T07:54:19;18.70;99.90
15951;DHT22;8074;48.112;11.570;2022-07-01T07:56:46;18.60;99.90
15951;DHT22;8074;48.112;11.570;2022-07-01T07:59:13;18.60;99.90
15951;DHT22;8074;48.112;11.570;2022-07-01T08:01:40;18.60;99.90
15951;DHT22;8074;48.112;11.570;2022-07-01T08:04:07;18.60;99.90
15951;DHT22;8074;48.112;11.570;2022-07-01T08:06:34;18.80;99.90
15951;DHT22;8074;48.112;11.570;2022-07-01T08:09:01;18.70;99.90
15951;DHT22;8074;48.112;11.570;2022-07-01T08:11:30;18.50;99.90
15951;DHT22;8074;48.112;11.570;2022-07-01T08:13:57;18.10;99.90
15951;DHT22;8074;48.112;11.570;2022-07-01T08:16:25;17.70;99.90
15951;DHT22;8074;48.112;11.570;2022-07-01T08:18:52;17.30;99.90
15951;DHT22;8074;48.112;11.570;2022-07-01T08:21:19;17.00;99.90
15951;DHT22;8074;48.112;11.570;2022-07-01T08:23:46;16.60;99.90
15951;DHT22;8074;48.112;11.570;2022-07-01T08:26:13;16.30;99.90
15951;DHT22;8074;48.112;11.570;2022-07-01T08:28:43;15.80;99.90
15951;DHT22;8074;48.112;11.570;2022-07-01T08:31:10;15.40;99.90
15951;DHT22;8074;48.112;11.570;2022-07-01T08:33:37;14.90;99.90
15951;DHT22;8074;48.112;11.570;2022-07-01T08:36:05;14.60;99.90
15951;DHT22;8074;48.112;11.570;2022-07-01T08:38:32;14.40;99.90
15951;DHT22;8074;48.112;11.570;2022-07-01T08:40:59;14.20;99.90
15951;DHT22;8074;48.112;11.570;2022-07-01T08:43:27;14.10;99.90
15951;DHT22;8074;48.112;11.570;2022-07-01T08:45:58;14.00;99.90
15951;DHT22;8074;48.112;11.570;2022-07-01T08:48:26;13.90;99.90
15951;DHT22;8074;48.112;11.570;2022-07-01T08:50:54;14.00;99.90
15951;DHT22;8074;48.112;11.570;2022-07-01T08:53:21;14.00;99.90
15951;DHT22;8074;48.112;11.570;2022-07-01T08:55:48;14.10;99.90
15951;DHT22;8074;48.112;11.570;2022-07-01T08:58:33;14.00;99.90
15951;DHT22;8074;48.112;11.570;2022-07-01T09:01:15;14.10;99.90
15951;DHT22;8074;48.112;11.570;2022-07-01T09:03:43;14.10;99.90
15951;DHT22;8074;48.112;11.570;2022-07-01T09:06:12;14.30;99.90
15951;DHT22;8074;48.112;11.570;2022-07-01T09:08:40;14.20;99.90
15951;DHT22;8074;48.112;11.570;2022-07-01T09:11:14;14.30;99.90
15951;DHT22;8074;48.112;11.570;2022-07-01T09:13:42;14.50;99.90
15951;DHT22;8074;48.112;11.570;2022-07-01T09:16:13;14.40;99.90
15951;DHT22;8074;48.112;11.570;2022-07-01T09:18:59;14.50;99.90
15951;DHT22;8074;48.112;11.570;2022-07-01T09:21:28;14.50;99.90
15951;DHT22;8074;48.112;11.570;2022-07-01T09:23:56;14.40;99.90
15951;DHT22;8074;48.112;11.570;2022-07-01T09:26:23;14.40;99.90
15951;DHT22;8074;48.112;11.570;2022-07-01T09:28:53;14.30;99.90
15951;DHT22;8074;48.112;11.570;2022-07-01T09:31:20;14.40;99.90
15951;DHT22;8074;48.112;11.570;2022-07-01T09:34:02;14.50;99.90
15951;DHT22;8074;48.112;11.570;2022-07-01T09:36:30;14.30;99.90
15951;DHT22;8074;48.112;11.570;2022-07-01T09:38:57;14.20;99.90
15951;DHT22;8074;48.112;11.570;2022-07-01T09:41:24;14.00;99.90
15951;DHT22;8074;48.112;11.570;2022-07-01T09:43:50;14.00;99.90
15951;DHT22;8074;48.112;11.570;2022-07-01T09:46:17;14.20;99.90
15951;DHT22;8074;48.112;11.570;2022-07-01T09:48:45;14.20;99.90
15951;DHT22;8074;48.112;11.570;2022-07-01T09:51:14;14.50;99.90
15951;DHT22;8074;48.112;11.570;2022-07-01T09:53:42;14.50;99.90
15951;DHT22;8074;48.112;11.570;2022-07-01T09:56:09;14.50;99.90
15951;DHT22;8074;48.112;11.570;2022-07-01T09:58:37;14.60;99.90
15951;DHT22;8074;48.112;11.570;2022-07-01T10:01:05;14.70;99.90
15951;DHT22;8074;48.112;11.570;2022-07-01T10:03:33;14.60;99.90
15951;DHT22;8074;48.112;11.570;2022-07-01T10:06:34;14.60;99.90
15951;DHT22;8074;48.112;11.570;2022-07-01T10:09:19;14.70;99.90
15951;DHT22;8074;48.112;11.570;2022-07-01T10:14:48;14.60;99.90
15951;DHT22;8074;48.112;11.570;2022-07-01T10:17:26;14.50;99.90
15951;DHT22;8074;48.112;11.570;2022-07-01T10:19:55;14.60;99.90
15951;DHT22;8074;48.112;11.570;2022-07-01T10:22:28;14.70;99.90
15951;DHT22;8074;48.112;11.570;2022-07-01T10:24:56;14.70;99.90
15951;DHT22;8074;48.112;11.570;2022-07-01T10:27:41;14.80;99.90
15951;DHT22;8074;48.112;11.570;2022-07-01T10:30:12;14.80;99.90
15951;DHT22;8074;48.112;11.570;2022-07-01T10:32:46;15.00;99.90
15951;DHT22;8074;48.112;11.570;2022-07-01T10:35:14;15.00;99.90
15951;DHT22;8074;48.112;11.570;2022-07-01T10:40:44;14.90;99.90
15951;DHT22;8074;48.112;11.570;2022-07-01T10:43:15;14.60;99.90
15951;DHT22;8074;48.112;11.570;2022-07-01T10:45:43;14.60;99.90
15951;DHT22;8074;48.112;11.570;2022-07-01T10:48:18;14.70;99.90
15951;DHT22;8074;48.112;11.570;2022-07-01T10:50:46;14.60;99.90
15951;DHT22;8074;48.112;11.570;2022-07-01T10:53:14;14.70;99.90
15951;DHT22;8074;48.112;11.570;2022-07-01T10:55:45;15.00;99.90
15951;DHT22;8074;48.112;11.570;2022-07-01T10:58:13;14.80;99.90
15951;DHT22;8074;48.112;11.570;2022-07-01T11:00:42;15.00;99.90
15951;DHT22;8074;48.112;11.570;2022-07-01T11:03:27;15.20;99.90
15951;DHT22;8074;48.112;11.570;2022-07-01T11:05:55;15.30;99.90
15951;DHT22;8074;48.112;11.570;2022-07-01T11:08:22;15.20;99.90
15951;DHT22;8074;48.112;11.570;2022-07-01T11:10:54;15.10;99.90
15951;DHT22;8074;48.112;11.570;2022-07-01T11:13:41;15.00;99.90
15951;DHT22;8074;48.112;11.570;2022-07-01T11:16:30;14.90;99.90
15951;DHT22;8074;48.112;11.570;2022-07-01T11:19:06;14.90;99.90
15951;DHT22;8074;48.112;11.570;2022-07-01T11:21:33;15.00;99.90
15951;DHT22;8074;48.112;11.570;2022-07-01T11:24:00;15.10;99.90
15951;DHT22;8074;48.112;11.570;2022-07-01T11:26:29;14.90;99.90
15951;DHT22;8074;48.112;11.570;2022-07-01T11:28:56;15.00;99.90
15951;DHT22;8074;48.112;11.570;2022-07-01T11:31:30;15.00;99.90
15951;DHT22;8074;48.112;11.570;2022-07-01T11:33:58;15.00;99.90
15951;DHT22;8074;48.112;11.570;2022-07-01T11:36:25;15.00;99.90
15951;DHT22;8074;48.112;11.570;2022-07-01T11:39:10;15.10;99.90
15951;DHT22;8074;48.112;11.570;2022-07-01T11:41:54;15.00;99.90
15951;DHT22;8074;48.112;11.570;2022-07-01T11:44:32;14.90;99.90
15951;DHT22;8074;48.112;11.570;2022-07-01T11:47:00;14.80;99.90
15951;DHT22;8074;48.112;11.570;2022-07-01T11:49:29;14.70;99.90
15951;DHT22;8074;48.112;11.570;2022-07-01T11:52:16;14.70;99.90
15951;DHT22;8074;48.112;11.570;2022-07-01T11:54:45;14.80;99.90
15951;DHT22;8074;48.112;11.570;2022-07-01T11:57:15;14.80;99.90
15951;DHT22;8074;48.112;11.570;2022-07-01T11:59:44;14.60;99.90
15951;DHT22;8074;48.112;11.570;2022-07-01T12:02:13;14.60;99.90
15951;DHT22;8074;48.112;11.570;2022-07-01T12:04:40;14.80;99.90
15951;DHT22;8074;48.112;11.570;2022-07-01T12:07:08;14.80;99.90
15951;DHT22;8074;48.112;11.570;2022-07-01T12:09:36;14.70;99.90
15951;DHT22;8074;48.112;11.570;2022-07-01T12:12:04;14.90;99.90
15951;DHT22;8074;48.112;11.570;2022-07-01T12:14:35;15.00;99.90
15951;DHT22;8074;48.112;11.570;2022-07-01T12:17:04;15.30;99.90
15951;DHT22;8074;48.112;11.570;2022-07-01T12:19:38;15.20;99.90
15951;DHT22;8074;48.112;11.570;2022-07-01T12:22:08;14.90;99.90
15951;DHT22;8074;48.112;11.570;2022-07-01T12:24:36;14.80;99.90
15951;DHT22;8074;48.112;11.570;2022-07-01T12:27:05;14.80;99.90
15951;DHT22;8074;48.112;11.570;2022-07-01T12:29:50;14.70;99.90
15951;DHT22;8074;48.112;11.570;2022-07-01T12:32:18;14.60;99.90
15951;DHT22;8074;48.112;11.570;2022-07-01T12:34:50;14.50;99.90
15951;DHT22;8074;48.112;11.570;2022-07-01T12:37:19;14.70;99.90
15951;DHT22;8074;48.112;11.570;2022-07-01T12:39:48;14.50;99.90
15951;DHT22;8074;48.112;11.570;2022-07-01T12:42:23;14.60;99.90
15951;DHT22;8074;48.112;11.570;2022-07-01T12:44:52;14.50;99.90
15951;DHT22;8074;48.112;11.570;2022-07-01T12:47:20;14.40;99.90
15951;DHT22;8074;48.112;11.570;2022-07-01T12:49:47;14.50;99.90
15951;DHT22;8074;48.112;11.570;2022-07-01T12:52:24;14.30;99.90
15951;DHT22;8074;48.112;11.570;2022-07-01T12:54:51;14.30;99.90
15951;DHT22;8074;48.112;11.570;2022-07-01T12:57:29;14.30;99.90
15951;DHT22;8074;48.112;11.570;2022-07-01T12:59:58;14.30;99.90
15951;DHT22;8074;48.112;11.570;2022-07-01T13:02:25;14.30;99.90
15951;DHT22;8074;48.112;11.570;2022-07-01T13:04:52;14.50;99.90
15951;DHT22;8074;48.112;11.570;2022-07-01T13:07:19;14.40;99.90
15951;DHT22;8074;48.112;11.570;2022-07-01T13:09:46;14.30;99.90
15951;DHT22;8074;48.112;11.570;2022-07-01T13:12:13;14.40;99.90
15951;DHT22;8074;48.112;11.570;2022-07-01T13:14:40;14.40;99.90
15951;DHT22;8074;48.112;11.570;2022-07-01T13:17:09;14.40;99.90
15951;DHT22;8074;48.112;11.570;2022-07-01T13:19:36;14.50;99.90
15951;DHT22;8074;48.112;11.570;2022-07-01T13:22:05;14.40;99.90
15951;DHT22;8074;48.112;11.570;2022-07-01T13:24:32;14.50;99.90
15951;DHT22;8074;48.112;11.570;2022-07-01T13:27:00;14.60;99.90
15951;DHT22;8074;48.112;11.570;2022-07-01T13:29:27;14.60;99.90
15951;DHT22;8074;48.112;11.570;2022-07-01T13:31:54;14.60;99.90
15951;DHT22;8074;48.112;11.570;2022-07-01T13:34:22;14.60;99.90
15951;DHT22;8074;48.112;11.570;2022-07-01T13:36:49;14.80;99.90
15951;DHT22;8074;48.112;11.570;2022-07-01T13:39:16;14.90;99.90
15951;DHT22;8074;48.112;11.570;2022-07-01T13:41:43;14.90;99.90
15951;DHT22;8074;48.112;11.570;2022-07-01T13:44:10;15.10;99.90
15951;DHT22;8074;48.112;11.570;2022-07-01T13:46:38;15.20;99.90
15951;DHT22;8074;48.112;11.570;2022-07-01T13:49:06;15.00;99.90
15951;DHT22;8074;48.112;11.570;2022-07-01T13:51:35;14.90;99.90
15951;DHT22;8074;48.112;11.570;2022-07-01T13:54:02;15.00;99.90
15951;DHT22;8074;48.112;11.570;2022-07-01T13:56:29;15.00;99.90
15951;DHT22;8074;48.112;11.570;2022-07-01T13:58:56;15.00;99.90
15951;DHT22;8074;48.112;11.570;2022-07-01T14:01:24;15.10;99.90
15951;DHT22;8074;48.112;11.570;2022-07-01T14:03:51;15.10;99.90
15951;DHT22;8074;48.112;11.570;2022-07-01T14:06:19;15.10;99.90
15951;DHT22;8074;48.112;11.570;2022-07-01T14:08:47;15.10;99.90
15951;DHT22;8074;48.112;11.570;2022-07-01T14:11:14;15.20;99.90
15951;DHT22;8074;48.112;11.570;2022-07-01T14:13:42;15.00;99.90
15951;DHT22;8074;48.112;11.570;2022-07-01T14:16:09;14.90;99.90
15951;DHT22;8074;48.112;11.570;2022-07-01T14:18:36;14.90;99.90
15951;DHT22;8074;48.112;11.570;2022-07-01T14:21:04;14.60;99.90
15951;DHT22;8074;48.112;11.570;2022-07-01T14:23:32;14.60;99.90
15951;DHT22;8074;48.112;11.570;2022-07-01T14:26:01;14.60;99.90
15951;DHT22;8074;48.112;11.570;2022-07-01T14:28:28;14.80;99.90
15951;DHT22;8074;48.112;11.570;2022-07-01T14:30:56;14.80;99.90
15951;DHT22;8074;48.112;11.570;2022-07-01T14:33:23;14.80;99.90
15951;DHT22;8074;48.112;11.570;2022-07-01T14:35:49;14.90;99.90
15951;DHT22;8074;48.112;11.570;2022-07-01T14:38:17;14.90;99.90
15951;DHT22;8074;48.112;11.570;2022-07-01T14:40:44;14.80;99.90
15951;DHT22;8074;48.112;11.570;2022-07-01T14:43:12;14.70;99.90
15951;DHT22;8074;48.112;11.570;2022-07-01T14:45:39;14.70;99.90
15951;DHT22;8074;48.112;11.570;2022-07-01T14:48:07;14.60;99.90
15951;DHT22;8074;48.112;11.570;2022-07-01T14:50:35;14.80;99.90
15951;DHT22;8074;48.112;11.570;2022-07-01T14:53:03;14.90;99.90
15951;DHT22;8074;48.112;11.570;2022-07-01T14:55:30;15.10;99.90
15951;DHT22;8074;48.112;11.570;2022-07-01T14:57:57;15.20;99.90
15951;DHT22;8074;48.112;11.570;2022-07-01T15:00:26;15.20;99.90
15951;DHT22;8074;48.112;11.570;2022-07-01T15:02:55;15.00;99.90
15951;DHT22;8074;48.112;11.570;2022-07-01T15:05:22;14.90;99.90
15951;DHT22;8074;48.112;11.570;2022-07-01T15:07:50;15.10;99.90
15951;DHT22;8074;48.112;11.570;2022-07-01T15:10:17;14.90;99.90
15951;DHT22;8074;48.112;11.570;2022-07-01T15:12:44;14.80;99.90
15951;DHT22;8074;48.112;11.570;2022-07-01T15:15:11;14.90;99.90
15951;DHT22;8074;48.112;11.570;2022-07-01T15:17:42;15.00;99.90
15951;DHT22;8074;48.112;11.570;2022-07-01T15:20:09;14.90;99.90
15951;DHT22;8074;48.112;11.570;2022-07-01T15:22:36;14.90;99.90
15951;DHT22;8074;48.112;11.570;2022-07-01T15:25:04;15.00;99.90
15951;DHT22;8074;48.112;11.570;2022-07-01T15:27:31;15.00;99.90
15951;DHT22;8074;48.112;11.570;2022-07-01T15:29:58;15.20;99.90
15951;DHT22;8074;48.112;11.570;2022-07-01T15:32:26;15.40;99.90
15951;DHT22;8074;48.112;11.570;2022-07-01T15:34:55;15.80;99.90
15951;DHT22;8074;48.112;11.570;2022-07-01T15:37:22;15.90;99.90
15951;DHT22;8074;48.112;11.570;2022-07-01T15:39:49;16.10;99.90
15951;DHT22;8074;48.112;11.570;2022-07-01T15:42:16;15.90;99.90
15951;DHT22;8074;48.112;11.570;2022-07-01T15:44:43;15.80;99.90
15951;DHT22;8074;48.112;11.570;2022-07-01T15:47:10;15.50;99.90
15951;DHT22;8074;48.112;11.570;2022-07-01T15:49:56;15.50;99.90
15951;DHT22;8074;48.112;11.570;2022-07-01T15:52:23;15.20;99.90
15951;DHT22;8074;48.112;11.570;2022-07-01T15:54:50;15.30;99.90
15951;DHT22;8074;48.112;11.570;2022-07-01T15:57:17;15.60;99.90
15951;DHT22;8074;48.112;11.570;2022-07-01T15:59:44;15.70;99.90
15951;DHT22;8074;48.112;11.570;2022-07-01T16:02:12;15.70;99.90
15951;DHT22;8074;48.112;11.570;2022-07-01T16:04:40;15.70;99.90
15951;DHT22;8074;48.112;11.570;2022-07-01T16:07:14;15.60;99.90
15951;DHT22;8074;48.112;11.570;2022-07-01T16:09:42;15.70;99.90
15951;DHT22;8074;48.112;11.570;2022-07-01T16:12:11;15.90;99.90
15951;DHT22;8074;48.112;11.570;2022-07-01T16:14:39;16.10;99.90
15951;DHT22;8074;48.112;11.570;2022-07-01T16:17:06;16.30;99.90
15951;DHT22;8074;48.112;11.570;2022-07-01T16:19:34;16.50;99.90
15951;DHT22;8074;48.112;11.570;2022-07-01T16:22:04;16.40;99.90
15951;DHT22;8074;48.112;11.570;2022-07-01T16:24:33;16.30;99.90
15951;DHT22;8074;48.112;11.570;2022-07-01T16:27:01;16.40;99.90
15951;DHT22;8074;48.112;11.570;2022-07-01T16:29:29;16.50;99.90
15951;DHT22;8074;48.112;11.570;2022-07-01T16:31:57;16.60;99.90
15951;DHT22;8074;48.112;11.570;2022-07-01T16:34:24;16.50;99.90
15951;DHT22;8074;48.112;11.570;2022-07-01T16:36:53;16.40;99.90
15951;DHT22;8074;48.112;11.570;2022-07-01T16:39:22;16.40;99.90
15951;DHT22;8074;48.112;11.570;2022-07-01T16:41:56;16.20;99.90
15951;DHT22;8074;48.112;11.570;2022-07-01T16:44:42;16.20;99.90
15951;DHT22;8074;48.112;11.570;2022-07-01T16:47:13;16.00;99.90
15951;DHT22;8074;48.112;11.570;2022-07-01T16:49:48;16.40;99.90
15951;DHT22;8074;48.112;11.570;2022-07-01T16:52:15;16.40;99.90
15951;DHT22;8074;48.112;11.570;2022-07-01T16:54:57;16.70;99.90
15951;DHT22;8074;48.112;11.570;2022-07-01T16:57:27;16.90;99.90
15951;DHT22;8074;48.112;11.570;2022-07-01T16:59:54;17.10;99.90
15951;DHT22;8074;48.112;11.570;2022-07-01T17:02:21;17.20;99.90
15951;DHT22;8074;48.112;11.570;2022-07-01T17:04:49;17.40;99.90
15951;DHT22;8074;48.112;11.570;2022-07-01T17:07:17;17.70;99.90
15951;DHT22;8074;48.112;11.570;2022-07-01T17:09:45;18.80;99.90
15951;DHT22;8074;48.112;11.570;2022-07-01T17:12:14;20.30;99.90
15951;DHT22;8074;48.112;11.570;2022-07-01T17:14:45;21.00;99.90
15951;DHT22;8074;48.112;11.570;2022-07-01T17:17:12;21.10;99.90
15951;DHT22;8074;48.112;11.570;2022-07-01T17:19:39;20.60;99.90
15951;DHT22;8074;48.112;11.570;2022-07-01T17:22:12;20.10;99.90
15951;DHT22;8074;48.112;11.570;2022-07-01T17:24:47;20.20;99.90
15951;DHT22;8074;48.112;11.570;2022-07-01T17:27:23;19.80;99.90
15951;DHT22;8074;48.112;11.570;2022-07-01T17:30:02;19.80;99.90
15951;DHT22;8074;48.112;11.570;2022-07-01T17:32:33;19.30;99.90
15951;DHT22;8074;48.112;11.570;2022-07-01T17:35:03;18.70;99.90
15951;DHT22;8074;48.112;11.570;2022-07-01T17:37:31;18.40;99.90
15951;DHT22;8074;48.112;11.570;2022-07-01T17:40:04;18.40;99.90
15951;DHT22;8074;48.112;11.570;2022-07-01T17:42:31;18.20;99.90
15951;DHT22;8074;48.112;11.570;2022-07-01T17:45:00;18.20;99.90
15951;DHT22;8074;48.112;11.570;2022-07-01T17:47:31;18.30;99.90
15951;DHT22;8074;48.112;11.570;2022-07-01T17:49:59;18.40;99.90
15951;DHT22;8074;48.112;11.570;2022-07-01T17:52:26;18.10;99.90
15951;DHT22;8074;48.112;11.570;2022-07-01T17:54:56;18.00;99.90
15951;DHT22;8074;48.112;11.570;2022-07-01T17:57:24;17.70;99.90
15951;DHT22;8074;48.112;11.570;2022-07-01T17:59:54;17.60;99.90
15951;DHT22;8074;48.112;11.570;2022-07-01T18:02:23;17.70;99.90
15951;DHT22;8074;48.112;11.570;2022-07-01T18:05:09;17.50;99.90
15951;DHT22;8074;48.112;11.570;2022-07-01T18:07:57;17.10;99.90
15951;DHT22;8074;48.112;11.570;2022-07-01T18:10:47;17.10;99.90
15951;DHT22;8074;48.112;11.570;2022-07-01T18:13:46;17.10;99.90
15951;DHT22;8074;48.112;11.570;2022-07-01T18:16:55;17.20;99.90
15951;DHT22;8074;48.112;11.570;2022-07-01T18:20:02;17.00;99.90
15951;DHT22;8074;48.112;11.570;2022-07-01T18:22:57;16.60;99.90
15951;DHT22;8074;48.112;11.570;2022-07-01T18:25:48;16.30;99.90
15951;DHT22;8074;48.112;11.570;2022-07-01T18:28:40;16.40;99.90
15951;DHT22;8074;48.112;11.570;2022-07-01T18:31:29;16.50;99.90
15951;DHT22;8074;48.112;11.570;2022-07-01T18:34:24;16.50;99.90
15951;DHT22;8074;48.112;11.570;2022-07-01T18:37:20;16.60;99.90
15951;DHT22;8074;48.112;11.570;2022-07-01T18:40:08;16.70;99.90
15951;DHT22;8074;48.112;11.570;2022-07-01T18:42:56;16.60;99.90
15951;DHT22;8074;48.112;11.570;2022-07-01T18:45:44;16.40;99.90
15951;DHT22;8074;48.112;11.570;2022-07-01T18:48:31;16.30;99.90
15951;DHT22;8074;48.112;11.570;2022-07-01T18:51:18;16.00;99.90
15951;DHT22;8074;48.112;11.570;2022-07-01T18:54:07;15.80;99.90
15951;DHT22;8074;48.112;11.570;2022-07-01T18:56:54;16.00;99.90
15951;DHT22;8074;48.112;11.570;2022-07-01T18:59:22;15.80;99.90
15951;DHT22;8074;48.112;11.570;2022-07-01T19:01:49;16.00;99.90
15951;DHT22;8074;48.112;11.570;2022-07-01T19:04:16;15.80;99.90
15951;DHT22;8074;48.112;11.570;2022-07-01T19:06:43;15.90;99.90
15951;DHT22;8074;48.112;11.570;2022-07-01T19:09:11;16.00;99.90
15951;DHT22;8074;48.112;11.570;2022-07-01T19:11:40;15.90;99.90
15951;DHT22;8074;48.112;11.570;2022-07-01T19:14:06;15.50;99.90
15951;DHT22;8074;48.112;11.570;2022-07-01T19:16:33;15.40;99.90
15951;DHT22;8074;48.112;11.570;2022-07-01T19:19:00;15.30;99.90
15951;DHT22;8074;48.112;11.570;2022-07-01T19:21:28;15.20;99.90
15951;DHT22;8074;48.112;11.570;2022-07-01T19:24:01;15.30;99.90
15951;DHT22;8074;48.112;11.570;2022-07-01T19:26:47;15.40;99.90
15951;DHT22;8074;48.112;11.570;2022-07-01T19:29:35;15.40;99.90
15951;DHT22;8074;48.112;11.570;2022-07-01T19:32:23;15.40;99.90
15951;DHT22;8074;48.112;11.570;2022-07-01T19:35:10;15.20;99.90
15951;DHT22;8074;48.112;11.570;2022-07-01T19:37:57;15.10;99.90
15951;DHT22;8074;48.112;11.570;2022-07-01T19:40:44;15.10;99.90
15951;DHT22;8074;48.112;11.570;2022-07-01T19:43:33;15.20;99.90
15951;DHT22;8074;48.112;11.570;2022-07-01T19:46:20;15.20;99.90
15951;DHT22;8074;48.112;11.570;2022-07-01T19:49:10;15.20;99.90
15951;DHT22;8074;48.112;11.570;2022-07-01T19:51:58;15.10;99.90
15951;DHT22;8074;48.112;11.570;2022-07-01T19:54:45;15.00;99.90
15951;DHT22;8074;48.112;11.570;2022-07-01T19:57:32;14.90;99.90
15951;DHT22;8074;48.112;11.570;2022-07-01T20:00:21;14.90;99.90
15951;DHT22;8074;48.112;11.570;2022-07-01T20:03:08;14.70;99.90
15951;DHT22;8074;48.112;11.570;2022-07-01T20:05:35;14.60;99.90
15951;DHT22;8074;48.112;11.570;2022-07-01T20:08:02;14.50;99.90
15951;DHT22;8074;48.112;11.570;2022-07-01T20:10:29;14.50;99.90
15951;DHT22;8074;48.112;11.570;2022-07-01T20:12:58;14.70;99.90
15951;DHT22;8074;48.112;11.570;2022-07-01T20:15:27;14.80;99.90
15951;DHT22;8074;48.112;11.570;2022-07-01T20:17:54;14.80;99.90
15951;DHT22;8074;48.112;11.570;2022-07-01T20:20:21;14.80;99.90
15951;DHT22;8074;48.112;11.570;2022-07-01T20:22:48;14.70;99.90
15951;DHT22;8074;48.112;11.570;2022-07-01T20:25:15;14.70;99.90
15951;DHT22;8074;48.112;11.570;2022-07-01T20:27:42;14.60;99.90
15951;DHT22;8074;48.112;11.570;2022-07-01T20:30:10;14.50;99.90
15951;DHT22;8074;48.112;11.570;2022-07-01T20:32:38;14.30;99.90
15951;DHT22;8074;48.112;11.570;2022-07-01T20:35:07;14.30;99.90
15951;DHT22;8074;48.112;11.570;2022-07-01T20:37:34;14.10;99.90
15951;DHT22;8074;48.112;11.570;2022-07-01T20:40:01;14.00;99.90
15951;DHT22;8074;48.112;11.570;2022-07-01T20:42:48;14.10;99.90
15951;DHT22;8074;48.112;11.570;2022-07-01T20:45:35;14.10;99.90
15951;DHT22;8074;48.112;11.570;2022-07-01T20:48:24;14.30;99.90
15951;DHT22;8074;48.112;11.570;2022-07-01T20:51:12;14.30;99.90
15951;DHT22;8074;48.112;11.570;2022-07-01T20:54:11;14.10;99.90
15951;DHT22;8074;48.112;11.570;2022-07-01T20:57:01;14.10;99.90
15951;DHT22;8074;48.112;11.570;2022-07-01T20:59:59;14.20;99.90
15951;DHT22;8074;48.112;11.570;2022-07-01T21:02:50;14.20;99.90
15951;DHT22;8074;48.112;11.570;2022-07-01T21:05:44;14.10;99.90
15951;DHT22;8074;48.112;11.570;2022-07-01T21:08:19;14.10;99.90
15951;DHT22;8074;48.112;11.570;2022-07-01T21:10:46;14.10;99.90
15951;DHT22;8074;48.112;11.570;2022-07-01T21:13:14;14.10;99.90
15951;DHT22;8074;48.112;11.570;2022-07-01T21:15:40;14.00;99.90
15951;DHT22;8074;48.112;11.570;2022-07-01T21:18:07;14.20;99.90
15951;DHT22;8074;48.112;11.570;2022-07-01T21:20:35;14.20;99.90
15951;DHT22;8074;48.112;11.570;2022-07-01T21:23:03;13.90;99.90
15951;DHT22;8074;48.112;11.570;2022-07-01T21:25:30;13.90;99.90
15951;DHT22;8074;48.112;11.570;2022-07-01T21:27:57;13.80;99.90
15951;DHT22;8074;48.112;11.570;2022-07-01T21:30:24;13.80;99.90
15951;DHT22;8074;48.112;11.570;2022-07-01T21:32:52;13.80;99.90
15951;DHT22;8074;48.112;11.570;2022-07-01T21:35:19;13.90;99.90
15951;DHT22;8074;48.112;11.570;2022-07-01T21:37:46;13.90;99.90
15951;DHT22;8074;48.112;11.570;2022-07-01T21:40:15;13.80;99.90
15951;DHT22;8074;48.112;11.570;2022-07-01T21:42:42;13.80;99.90
15951;DHT22;8074;48.112;11.570;2022-07-01T21:45:10;13.70;99.90
15951;DHT22;8074;48.112;11.570;2022-07-01T21:47:37;13.70;99.90
15951;DHT22;8074;48.112;11.570;2022-07-01T21:50:05;13.70;99.90
15951;DHT22;8074;48.112;11.570;2022-07-01T21:52:33;13.70;99.90
15951;DHT22;8074;48.112;11.570;2022-07-01T21:55:05;13.90;99.90
15951;DHT22;8074;48.112;11.570;2022-07-01T21:57:35;13.90;99.90
15951;DHT22;8074;48.112;11.570;2022-07-01T22:00:06;13.80;99.90
15951;DHT22;8074;48.112;11.570;2022-07-01T22:02:35;14.00;99.90
15951;DHT22;8074;48.112;11.570;2022-07-01T22:05:02;13.90;99.90
15951;DHT22;8074;48.112;11.570;2022-07-01T22:07:29;13.90;99.90
15951;DHT22;8074;48.112;11.570;2022-07-01T22:09:56;13.70;99.90
15951;DHT22;8074;48.112;11.570;2022-07-01T22:12:24;13.70;99.90
15951;DHT22;8074;48.112;11.570;2022-07-01T22:14:58;13.80;99.90
15951;DHT22;8074;48.112;11.570;2022-07-01T22:17:29;13.90;99.90
15951;DHT22;8074;48.112;11.570;2022-07-01T22:19:56;13.90;99.90
15951;DHT22;8074;48.112;11.570;2022-07-01T22:22:27;13.80;99.90
15951;DHT22;8074;48.112;11.570;2022-07-01T22:24:55;13.60;99.90
15951;DHT22;8074;48.112;11.570;2022-07-01T22:27:24;13.60;99.90
15951;DHT22;8074;48.112;11.570;2022-07-01T22:29:53;13.60;99.90
15951;DHT22;8074;48.112;11.570;2022-07-01T22:32:24;13.60;99.90
15951;DHT22;8074;48.112;11.570;2022-07-01T22:34:51;13.70;99.90
15951;DHT22;8074;48.112;11.570;2022-07-01T22:37:19;13.60;99.90
15951;DHT22;8074;48.112;11.570;2022-07-01T22:39:47;13.40;99.90
15951;DHT22;8074;48.112;11.570;2022-07-01T22:42:15;13.20;99.90
15951;DHT22;8074;48.112;11.570;2022-07-01T22:44:44;13.40;99.90
15951;DHT22;8074;48.112;11.570;2022-07-01T22:47:13;13.50;99.90
15951;DHT22;8074;48.112;11.570;2022-07-01T22:50:04;13.50;99.90
15951;DHT22;8074;48.112;11.570;2022-07-01T22:52:37;13.50;99.90
15951;DHT22;8074;48.112;11.570;2022-07-01T22:55:11;13.50;99.90
15951;DHT22;8074;48.112;11.570;2022-07-01T22:57:48;13.50;99.90
15951;DHT22;8074;48.112;11.570;2022-07-01T23:00:18;13.50;99.90
15951;DHT22;8074;48.112;11.570;2022-07-01T23:02:47;13.50;99.90
15951;DHT22;8074;48.112;11.570;2022-07-01T23:05:16;13.30;99.90